createdAt,value
2024-01-16T00:00:28.192Z,3.03
2024-01-16T00:02:57.349Z,4.57
2024-01-16T00:05:25.394Z,3.70
2024-01-16T00:07:53.349Z,3.70
2024-01-16T00:10:21.231Z,2.73
2024-01-16T00:12:49.382Z,3.23
2024-01-16T00:15:17.494Z,2.73
2024-01-16T00:17:45.568Z,3.23
2024-01-16T00:20:15.062Z,2.10
2024-01-16T00:22:43.213Z,2.57
2024-01-16T00:25:11.869Z,3.10
2024-01-16T00:27:39.707Z,2.07
2024-01-16T00:30:08.872Z,2.93
2024-01-16T00:32:36.834Z,3.00
2024-01-16T00:35:05.163Z,2.63
2024-01-16T00:37:35.082Z,3.00
2024-01-16T00:40:05.283Z,3.27
2024-01-16T00:42:33.712Z,6.33
2024-01-16T00:45:01.532Z,7.37
2024-01-16T00:47:29.496Z,6.90
2024-01-16T00:49:57.429Z,6.97
2024-01-16T00:52:25.428Z,7.20
2024-01-16T00:54:54.757Z,7.07
2024-01-16T00:57:22.974Z,9.77
2024-01-16T00:59:51.448Z,12.60
2024-01-16T01:02:19.411Z,13.50
2024-01-16T01:04:47.945Z,50.87
2024-01-16T01:07:16.370Z,155.77
2024-01-16T01:09:44.391Z,163.23
2024-01-16T01:12:13.588Z,180.37
2024-01-16T01:14:41.557Z,178.90
2024-01-16T01:17:09.551Z,156.70
2024-01-16T01:19:37.441Z,165.10
2024-01-16T01:22:05.608Z,112.17
2024-01-16T01:24:33.404Z,33.70
2024-01-16T01:27:01.251Z,115.27
2024-01-16T01:29:30.463Z,116.93
2024-01-16T01:31:58.369Z,145.30
2024-01-16T01:34:26.238Z,160.67
2024-01-16T01:36:54.087Z,184.70
2024-01-16T01:39:21.916Z,131.43
2024-01-16T01:41:50.145Z,231.83
2024-01-16T01:44:18.164Z,193.73
2024-01-16T01:46:47.670Z,202.50
2024-01-16T01:49:17.481Z,121.60
2024-01-16T01:51:46.204Z,152.30
2024-01-16T01:54:16.461Z,194.77
2024-01-16T01:56:46.975Z,130.47
2024-01-16T01:59:16.015Z,133.30
2024-01-16T02:01:44.663Z,123.67
2024-01-16T02:04:16.338Z,116.77
2024-01-16T02:06:45.519Z,113.33
2024-01-16T02:09:14.457Z,89.27
2024-01-16T02:11:42.525Z,114.17
2024-01-16T02:14:10.689Z,106.93
2024-01-16T02:16:40.099Z,115.73
2024-01-16T02:19:08.269Z,103.97
2024-01-16T02:21:41.119Z,124.37
2024-01-16T02:24:12.018Z,84.90
2024-01-16T02:26:39.946Z,86.63
2024-01-16T02:29:08.790Z,109.77
2024-01-16T02:31:36.638Z,108.47
2024-01-16T02:34:05.239Z,151.00
2024-01-16T02:36:33.329Z,126.63
2024-01-16T02:39:01.256Z,229.37
2024-01-16T02:41:30.633Z,76.67
2024-01-16T02:43:58.592Z,55.63
2024-01-16T02:46:26.484Z,24.40
2024-01-16T02:48:54.349Z,18.47
2024-01-16T02:51:22.421Z,16.33
2024-01-16T02:53:50.510Z,17.40
2024-01-16T02:56:18.448Z,11.50
2024-01-16T02:58:47.673Z,8.45
2024-01-16T03:01:16.659Z,7.25
2024-01-16T03:03:44.636Z,6.30
2024-01-16T03:06:12.623Z,5.97
2024-01-16T03:08:40.494Z,6.25
2024-01-16T03:11:08.480Z,5.05
2024-01-16T03:13:36.400Z,3.27
2024-01-16T03:16:10.209Z,3.90
2024-01-16T03:18:38.745Z,3.25
2024-01-16T03:21:08.651Z,4.07
2024-01-16T03:23:36.575Z,3.05
2024-01-16T03:26:04.956Z,3.10
2024-01-16T03:28:32.891Z,2.60
2024-01-16T03:31:00.828Z,3.17
2024-01-16T03:33:30.151Z,2.70
2024-01-16T03:35:58.137Z,3.25
2024-01-16T03:38:26.073Z,3.40
2024-01-16T03:40:53.999Z,2.80
2024-01-16T03:43:21.845Z,2.43
2024-01-16T03:45:50.050Z,3.63
2024-01-16T03:48:18.058Z,2.10
2024-01-16T03:50:48.498Z,3.00
2024-01-16T03:53:16.497Z,2.42
2024-01-16T03:55:44.649Z,1.90
2024-01-16T03:58:13.608Z,2.50
2024-01-16T04:00:41.686Z,2.25
2024-01-16T04:03:09.971Z,3.17
2024-01-16T04:05:38.148Z,2.35
2024-01-16T04:08:07.540Z,2.17
2024-01-16T04:10:35.385Z,2.63
2024-01-16T04:13:03.512Z,3.03
2024-01-16T04:15:31.416Z,2.53
2024-01-16T04:17:59.342Z,2.10
2024-01-16T04:20:27.276Z,3.10
2024-01-16T04:22:55.101Z,2.10
2024-01-16T04:25:24.340Z,2.92
2024-01-16T04:27:52.713Z,2.08
2024-01-16T04:30:21.375Z,2.20
2024-01-16T04:32:49.556Z,2.20
2024-01-16T04:35:17.725Z,3.90
2024-01-16T04:37:45.615Z,2.92
2024-01-16T04:40:13.483Z,2.38
2024-01-16T04:42:43.630Z,3.03
2024-01-16T04:45:11.738Z,2.33
2024-01-16T04:47:39.689Z,2.40
2024-01-16T04:50:09.241Z,3.33
2024-01-16T04:52:37.261Z,2.80
2024-01-16T04:55:05.740Z,3.38
2024-01-16T04:57:33.924Z,1.80
2024-01-16T05:00:06.904Z,2.55
2024-01-16T05:02:35.415Z,4.25
2024-01-16T05:05:03.493Z,2.40
2024-01-16T05:07:32.042Z,2.70
2024-01-16T05:10:00.287Z,3.05
2024-01-16T05:12:28.255Z,2.20
2024-01-16T05:14:56.198Z,3.08
2024-01-16T05:17:25.500Z,3.33
2024-01-16T05:19:53.946Z,2.33
2024-01-16T05:22:21.805Z,3.20
2024-01-16T05:24:49.940Z,2.65
2024-01-16T05:27:17.802Z,2.78
2024-01-16T05:29:45.782Z,2.60
2024-01-16T05:32:15.617Z,2.58
2024-01-16T05:34:44.844Z,3.58
2024-01-16T05:37:12.797Z,3.08
2024-01-16T05:39:40.702Z,2.83
2024-01-16T05:42:08.634Z,4.93
2024-01-16T05:44:36.630Z,3.30
2024-01-16T05:47:04.703Z,2.78
2024-01-16T05:49:32.629Z,3.15
2024-01-16T05:52:02.123Z,2.70
2024-01-16T05:54:30.053Z,3.58
2024-01-16T05:56:57.956Z,4.45
2024-01-16T05:59:26.614Z,3.53
2024-01-16T06:01:54.454Z,2.95
2024-01-16T06:04:22.442Z,3.75
2024-01-16T06:06:50.650Z,4.20
2024-01-16T06:09:19.951Z,6.85
2024-01-16T06:11:49.212Z,6.75
2024-01-16T06:14:22.584Z,5.32
2024-01-16T06:16:52.006Z,3.90
2024-01-16T06:19:20.050Z,4.97
2024-01-16T06:21:48.161Z,4.15
2024-01-16T06:24:16.066Z,3.80
2024-01-16T06:26:45.411Z,3.50
2024-01-16T06:29:21.504Z,4.25
2024-01-16T06:31:56.394Z,3.70
2024-01-16T06:34:24.356Z,3.97
2024-01-16T06:36:52.341Z,5.07
2024-01-16T06:39:20.303Z,5.25
2024-01-16T06:41:49.853Z,8.75
2024-01-16T06:44:17.780Z,10.52
2024-01-16T06:46:46.434Z,10.40
2024-01-16T06:49:14.395Z,9.75
2024-01-16T06:51:42.300Z,9.30
2024-01-16T06:54:10.222Z,9.23
2024-01-16T06:56:38.265Z,42.70
2024-01-16T06:59:10.346Z,10.82
2024-01-16T07:01:40.175Z,9.13
2024-01-16T07:04:08.089Z,6.90
2024-01-16T07:06:36.061Z,5.13
2024-01-16T07:09:06.290Z,5.05
2024-01-16T07:11:34.340Z,4.63
2024-01-16T07:14:02.241Z,5.78
2024-01-16T07:16:31.478Z,5.85
2024-01-16T07:18:59.479Z,6.00
2024-01-16T07:21:27.801Z,4.80
2024-01-16T07:23:55.910Z,5.90
2024-01-16T07:26:24.472Z,10.65
2024-01-16T07:28:52.578Z,7.68
2024-01-16T07:31:20.846Z,7.72
2024-01-16T07:33:50.336Z,7.13
2024-01-16T07:36:18.283Z,8.40
2024-01-16T07:38:46.301Z,7.00
2024-01-16T07:41:14.340Z,7.72
2024-01-16T07:43:42.226Z,7.32
2024-01-16T07:46:10.077Z,7.22
2024-01-16T07:48:38.705Z,6.07
2024-01-16T07:51:08.322Z,10.30
2024-01-16T07:53:36.392Z,7.25
2024-01-16T07:56:04.541Z,7.80
2024-01-16T07:58:32.412Z,6.82
2024-01-16T08:01:00.427Z,9.55
2024-01-16T08:03:28.358Z,6.70
2024-01-16T08:05:57.142Z,6.85
2024-01-16T08:08:26.491Z,8.57
2024-01-16T08:10:54.506Z,6.07
2024-01-16T08:13:22.414Z,8.10
2024-01-16T08:15:51.316Z,8.43
2024-01-16T08:18:19.410Z,7.57
2024-01-16T08:20:47.553Z,6.97
2024-01-16T08:23:15.434Z,7.20
2024-01-16T08:25:44.646Z,5.40
2024-01-16T08:28:12.550Z,4.20
2024-01-16T08:30:40.449Z,6.50
2024-01-16T08:33:08.497Z,4.93
2024-01-16T08:35:36.605Z,5.70
2024-01-16T08:38:05.506Z,5.20
2024-01-16T08:40:33.515Z,7.73
2024-01-16T08:43:02.677Z,9.23
2024-01-16T08:45:30.526Z,5.13
2024-01-16T08:47:59.331Z,4.43
2024-01-16T08:50:27.334Z,5.27
2024-01-16T08:52:55.214Z,6.87
2024-01-16T08:55:23.448Z,5.60
2024-01-16T08:57:51.642Z,5.97
2024-01-16T09:00:21.434Z,5.30
2024-01-16T09:02:49.942Z,6.00
2024-01-16T09:05:18.182Z,6.53
2024-01-16T09:07:46.099Z,4.53
2024-01-16T09:10:14.312Z,4.10
2024-01-16T09:12:42.225Z,4.70
2024-01-16T09:15:11.245Z,5.40
2024-01-16T09:17:41.281Z,5.80
2024-01-16T09:20:10.656Z,6.37
2024-01-16T09:22:38.536Z,5.57
2024-01-16T09:25:07.593Z,9.70
2024-01-16T09:27:35.457Z,13.80
2024-01-16T09:30:03.685Z,13.23
2024-01-16T09:32:31.586Z,11.97
2024-01-16T09:35:03.951Z,31.57
2024-01-16T09:37:31.864Z,63.00
2024-01-16T09:39:59.684Z,30.33
2024-01-16T09:42:28.603Z,147.27
2024-01-16T09:44:57.852Z,182.53
2024-01-16T09:47:27.265Z,478.47
2024-01-16T09:49:56.952Z,491.40
2024-01-16T09:52:26.129Z,999.90
2024-01-16T09:54:54.309Z,999.90
2024-01-16T09:57:26.762Z,999.90
2024-01-16T09:59:54.871Z,999.90
2024-01-16T10:02:23.206Z,999.90
2024-01-16T10:04:51.404Z,999.90
2024-01-16T10:07:20.736Z,999.90
2024-01-16T10:09:50.081Z,999.90
2024-01-16T10:12:18.377Z,999.90
2024-01-16T10:14:48.084Z,999.90
2024-01-16T10:17:18.367Z,999.90
2024-01-16T10:19:51.134Z,999.90
2024-01-16T10:22:25.505Z,999.90
2024-01-16T10:25:07.082Z,999.90
2024-01-16T10:27:35.082Z,999.90
2024-01-16T10:30:04.107Z,999.90
2024-01-16T10:32:33.809Z,999.90
2024-01-16T10:35:06.735Z,999.90
2024-01-16T10:37:44.052Z,999.90
2024-01-16T10:40:16.862Z,999.90
2024-01-16T10:42:45.294Z,999.90
2024-01-16T10:45:19.349Z,999.90
2024-01-16T10:47:48.433Z,999.90
2024-01-16T10:50:16.795Z,999.90
2024-01-16T10:52:49.729Z,999.90
2024-01-16T10:55:23.293Z,999.90
2024-01-16T10:57:52.054Z,999.90
2024-01-16T11:00:22.730Z,999.90
2024-01-16T11:03:00.892Z,999.90
2024-01-16T11:05:33.007Z,999.90
2024-01-16T11:08:02.232Z,999.90
2024-01-16T11:10:33.651Z,999.90
2024-01-16T11:13:03.563Z,999.90
2024-01-16T11:15:31.525Z,999.90
2024-01-16T11:17:59.547Z,999.90
2024-01-16T11:20:47.673Z,999.90
2024-01-16T11:23:17.620Z,999.90
2024-01-16T11:25:46.913Z,999.90
2024-01-16T11:28:16.901Z,999.90
2024-01-16T11:30:45.589Z,999.90
2024-01-16T11:33:44.510Z,999.90
2024-01-16T11:36:49.203Z,999.90
2024-01-16T11:39:20.321Z,999.90
2024-01-16T11:41:54.608Z,999.90
2024-01-16T11:44:43.376Z,999.90
2024-01-16T11:47:12.082Z,999.90
2024-01-16T11:49:40.063Z,999.90
2024-01-16T11:52:08.683Z,999.90
2024-01-16T11:54:36.568Z,999.90
2024-01-16T11:57:28.489Z,999.90
2024-01-16T12:00:08.374Z,999.90
2024-01-16T12:02:54.585Z,999.90
2024-01-16T12:05:23.121Z,999.90
2024-01-16T12:07:53.527Z,999.90
2024-01-16T12:10:22.483Z,999.90
2024-01-16T12:12:53.129Z,999.90
2024-01-16T12:15:22.411Z,999.90
2024-01-16T12:17:59.005Z,999.90
2024-01-16T12:20:28.981Z,999.90
2024-01-16T12:22:58.402Z,999.90
2024-01-16T12:25:59.399Z,999.90
2024-01-16T12:28:28.025Z,999.90
2024-01-16T12:31:00.844Z,999.90
2024-01-16T12:33:29.894Z,999.90
2024-01-16T12:36:05.179Z,999.90
2024-01-16T12:38:34.011Z,999.90
2024-01-16T12:41:04.282Z,999.90
2024-01-16T12:43:34.341Z,999.90
2024-01-16T12:46:02.529Z,999.90
2024-01-16T12:48:31.310Z,999.90
2024-01-16T12:51:03.711Z,999.90
2024-01-16T12:53:34.843Z,999.90
2024-01-16T12:56:04.986Z,999.90
2024-01-16T12:58:40.713Z,999.90
2024-01-16T13:01:34.197Z,999.90
2024-01-16T13:04:07.240Z,999.90
2024-01-16T13:06:35.714Z,999.90
2024-01-16T13:09:10.957Z,999.90
2024-01-16T13:11:53.068Z,999.90
2024-01-16T13:14:23.561Z,999.90
2024-01-16T13:16:53.031Z,999.90
2024-01-16T13:19:21.543Z,999.90
2024-01-16T13:21:50.359Z,999.90
2024-01-16T13:24:22.602Z,999.90
2024-01-16T13:26:51.364Z,999.90
2024-01-16T13:29:20.335Z,999.90
2024-01-16T13:31:50.296Z,999.90
2024-01-16T13:34:19.422Z,999.90
2024-01-16T13:37:00.782Z,999.90
2024-01-16T13:39:39.473Z,999.90
2024-01-16T13:42:08.169Z,999.90
2024-01-16T13:44:36.284Z,999.90
2024-01-16T13:47:09.059Z,999.90
2024-01-16T13:49:41.696Z,999.90
2024-01-16T13:52:09.773Z,999.90
2024-01-16T13:54:39.751Z,999.90
2024-01-16T13:57:09.441Z,999.90
2024-01-16T13:59:39.725Z,999.90
2024-01-16T14:02:09.749Z,999.90
2024-01-16T14:04:38.068Z,999.90
2024-01-16T14:09:37.799Z,999.90
2024-01-16T14:12:07.221Z,999.90
2024-01-16T14:14:35.231Z,999.90
2024-01-16T14:17:04.385Z,999.90
2024-01-16T14:19:33.947Z,999.90
2024-01-16T14:22:02.735Z,999.90
2024-01-16T14:24:30.595Z,999.90
2024-01-16T14:26:58.790Z,999.90
2024-01-16T14:29:27.841Z,999.90
2024-01-16T14:31:57.342Z,999.90
2024-01-16T14:34:25.986Z,999.90
2024-01-16T14:36:55.854Z,999.90
2024-01-16T14:39:26.994Z,999.90
2024-01-16T14:41:56.106Z,999.90
2024-01-16T14:44:24.196Z,999.90
2024-01-16T14:46:55.370Z,999.90
2024-01-16T14:49:23.674Z,999.90
2024-01-16T14:51:52.701Z,999.90
2024-01-16T14:54:21.997Z,999.90
2024-01-16T14:56:50.539Z,999.90
2024-01-16T14:59:19.175Z,999.90
2024-01-16T15:01:47.139Z,999.90
2024-01-16T15:04:15.068Z,999.90
2024-01-16T15:06:43.166Z,999.90
2024-01-16T15:09:13.722Z,999.90
2024-01-16T15:11:48.869Z,999.90
2024-01-16T15:14:18.889Z,999.90
2024-01-16T15:16:47.374Z,999.90
2024-01-16T15:19:15.458Z,999.90
2024-01-16T15:21:43.541Z,999.90
2024-01-16T15:24:17.235Z,999.90
2024-01-16T15:26:46.523Z,999.90
2024-01-16T15:29:14.577Z,999.90
2024-01-16T15:31:42.410Z,999.90
2024-01-16T15:34:12.085Z,999.90
2024-01-16T15:36:41.630Z,999.90
2024-01-16T15:39:09.607Z,999.90
2024-01-16T15:41:37.493Z,999.90
2024-01-16T15:44:11.533Z,999.90
2024-01-16T15:46:59.078Z,999.90
2024-01-16T15:49:27.388Z,999.90
2024-01-16T15:51:55.793Z,999.90
2024-01-16T15:54:24.585Z,999.90
2024-01-16T15:56:53.149Z,332.23
2024-01-16T15:59:22.462Z,175.23
2024-01-16T16:01:52.017Z,33.17
2024-01-16T16:04:20.062Z,31.97
2024-01-16T16:06:48.292Z,14.83
2024-01-16T16:09:16.298Z,6.87
2024-01-16T16:11:45.486Z,4.17
2024-01-16T16:14:13.696Z,4.13
2024-01-16T16:16:44.502Z,4.10
2024-01-16T16:19:12.872Z,4.13
2024-01-16T16:21:40.771Z,3.50
2024-01-16T16:24:08.689Z,4.90
2024-01-16T16:26:38.762Z,3.67
2024-01-16T16:29:07.967Z,3.80
2024-01-16T16:31:35.802Z,4.83
2024-01-16T16:34:06.970Z,7.17
2024-01-16T16:36:35.056Z,4.20
2024-01-16T16:39:02.847Z,8.80
2024-01-16T16:41:30.740Z,9.23
2024-01-16T16:44:00.463Z,13.47
2024-01-16T16:46:28.806Z,13.83
2024-01-16T16:48:57.181Z,17.23
2024-01-16T16:51:27.773Z,13.83
2024-01-16T16:53:56.291Z,7.33
2024-01-16T16:56:25.778Z,5.60
2024-01-16T16:58:54.570Z,5.50
2024-01-16T17:01:22.639Z,4.60
2024-01-16T17:03:53.418Z,4.60
2024-01-16T17:06:21.644Z,3.33
2024-01-16T17:08:51.297Z,4.10
2024-01-16T17:11:19.186Z,4.77
2024-01-16T17:13:47.384Z,3.50
2024-01-16T17:16:18.222Z,5.90
2024-01-16T17:18:46.371Z,3.70
2024-01-16T17:21:14.790Z,5.03
2024-01-16T17:23:43.427Z,6.53
2024-01-16T17:26:12.854Z,5.00
2024-01-16T17:28:41.328Z,5.17
2024-01-16T17:31:09.210Z,5.47
2024-01-16T17:33:37.552Z,5.90
2024-01-16T17:36:11.936Z,7.20
2024-01-16T17:38:40.450Z,4.27
2024-01-16T17:41:08.540Z,7.35
2024-01-16T17:43:37.866Z,7.38
2024-01-16T17:46:06.593Z,9.40
2024-01-16T17:48:35.205Z,9.30
2024-01-16T17:51:03.266Z,5.50
2024-01-16T17:53:31.206Z,5.73
2024-01-16T17:55:59.160Z,6.17
2024-01-16T17:58:27.348Z,9.82
2024-01-16T18:00:56.602Z,8.73
2024-01-16T18:03:36.867Z,6.67
2024-01-16T18:06:10.216Z,6.80
2024-01-16T18:08:38.757Z,6.72
2024-01-16T18:11:08.102Z,14.35
2024-01-16T18:13:38.561Z,7.57
2024-01-16T18:16:08.298Z,7.50
2024-01-16T18:18:38.036Z,8.10
2024-01-16T18:21:08.605Z,7.50
2024-01-16T18:23:37.283Z,7.68
2024-01-16T18:26:06.091Z,7.32
2024-01-16T18:28:33.997Z,19.95
2024-01-16T18:31:02.060Z,13.85
2024-01-16T18:33:31.643Z,14.82
2024-01-16T18:36:01.634Z,10.50
2024-01-16T18:38:29.933Z,7.95
2024-01-16T18:40:59.533Z,7.68
2024-01-16T18:43:28.992Z,8.98
2024-01-16T18:45:58.034Z,9.70
2024-01-16T18:48:26.107Z,13.15
2024-01-16T18:50:55.913Z,14.70
2024-01-16T18:53:24.073Z,12.18
2024-01-16T18:55:53.357Z,14.82
2024-01-16T18:58:21.857Z,13.23
2024-01-16T19:00:51.506Z,11.20
2024-01-16T19:03:19.940Z,11.82
2024-01-16T19:05:48.819Z,11.32
2024-01-16T19:08:24.905Z,12.98
2024-01-16T19:10:54.835Z,11.95
2024-01-16T19:13:25.559Z,11.05
2024-01-16T19:15:54.069Z,11.27
2024-01-16T19:18:22.423Z,7.05
2024-01-16T19:20:53.457Z,5.15
2024-01-16T19:23:22.950Z,4.93
2024-01-16T19:25:51.060Z,5.50
2024-01-16T19:28:18.879Z,4.82
2024-01-16T19:30:46.975Z,4.47
2024-01-16T19:33:15.141Z,13.60
2024-01-16T19:35:43.191Z,13.48
2024-01-16T19:38:11.060Z,12.30
2024-01-16T19:40:40.503Z,10.10
2024-01-16T19:43:08.356Z,13.27
2024-01-16T19:45:36.434Z,5.63
2024-01-16T19:48:04.793Z,6.78
2024-01-16T19:50:33.318Z,12.82
2024-01-16T19:53:03.746Z,14.75
2024-01-16T19:55:31.704Z,16.27
2024-01-16T19:58:03.707Z,9.55
2024-01-16T20:00:32.928Z,10.45
2024-01-16T20:03:01.030Z,10.02
2024-01-16T20:05:30.052Z,7.28
2024-01-16T20:07:58.034Z,13.25
2024-01-16T20:10:26.954Z,12.68
2024-01-16T20:12:54.960Z,11.55
2024-01-16T20:15:27.171Z,10.77
2024-01-16T20:17:55.358Z,7.97
2024-01-16T20:20:24.630Z,9.77
2024-01-16T20:22:53.283Z,7.05
2024-01-16T20:25:21.148Z,6.47
2024-01-16T20:27:49.532Z,6.57
2024-01-16T20:30:17.933Z,5.20
2024-01-16T20:32:49.646Z,5.95
2024-01-16T20:35:20.756Z,8.93
2024-01-16T20:37:48.803Z,5.72
2024-01-16T20:40:16.794Z,9.32
2024-01-16T20:42:44.846Z,9.85
2024-01-16T20:45:12.759Z,9.02
2024-01-16T20:47:42.022Z,8.68
2024-01-16T20:50:11.741Z,12.18
2024-01-16T20:52:39.786Z,8.05
2024-01-16T20:55:09.130Z,11.20
2024-01-16T20:57:37.302Z,10.80
2024-01-16T21:00:14.280Z,12.10
2024-01-16T21:02:43.323Z,15.60
2024-01-16T21:05:13.131Z,17.02
2024-01-16T21:07:42.264Z,13.70
2024-01-16T21:10:11.295Z,7.95
2024-01-16T21:12:39.323Z,8.15
2024-01-16T21:15:08.346Z,7.65
2024-01-16T21:17:36.478Z,7.53
2024-01-16T21:20:07.106Z,4.30
2024-01-16T21:22:37.192Z,5.22
2024-01-16T21:25:07.056Z,8.73
2024-01-16T21:27:35.099Z,7.00
2024-01-16T21:30:03.525Z,7.45
2024-01-16T21:32:31.612Z,7.75
2024-01-16T21:34:59.730Z,11.68
2024-01-16T21:37:27.616Z,18.20
2024-01-16T21:39:56.907Z,8.55
2024-01-16T21:42:24.835Z,19.30
2024-01-16T21:44:54.048Z,9.82
2024-01-16T21:47:24.932Z,15.45
2024-01-16T21:49:53.438Z,10.80
2024-01-16T21:52:22.414Z,10.20
2024-01-16T21:54:50.994Z,18.17
2024-01-16T21:57:20.189Z,11.55
2024-01-16T21:59:48.424Z,17.77
2024-01-16T22:02:18.455Z,36.53
2024-01-16T22:04:47.697Z,28.98
2024-01-16T22:07:15.764Z,15.52
2024-01-16T22:09:43.631Z,14.43
2024-01-16T22:12:11.531Z,24.95
2024-01-16T22:14:42.391Z,23.42
2024-01-16T22:17:10.367Z,17.67
2024-01-16T22:19:38.728Z,11.95
2024-01-16T22:22:06.752Z,11.57
2024-01-16T22:24:34.630Z,12.77
2024-01-16T22:27:02.560Z,15.40
2024-01-16T22:29:30.716Z,17.63
2024-01-16T22:31:59.931Z,15.90
2024-01-16T22:34:28.284Z,15.38
2024-01-16T22:36:56.345Z,14.98
2024-01-16T22:39:25.188Z,15.30
2024-01-16T22:41:54.337Z,13.98
2024-01-16T22:44:23.121Z,13.05
2024-01-16T22:46:52.095Z,10.80
2024-01-16T22:49:21.283Z,11.70
2024-01-16T22:51:49.526Z,12.23
2024-01-16T22:54:17.596Z,14.88
2024-01-16T22:56:45.476Z,13.95
2024-01-16T22:59:13.364Z,15.18
2024-01-16T23:01:41.376Z,18.58
2024-01-16T23:04:09.387Z,17.17
2024-01-16T23:06:38.742Z,19.27
2024-01-16T23:09:07.674Z,20.20
2024-01-16T23:11:35.664Z,19.27
2024-01-16T23:14:04.357Z,19.75
2024-01-16T23:16:33.560Z,17.65
2024-01-16T23:19:01.977Z,16.75
2024-01-16T23:21:29.920Z,20.27
2024-01-16T23:23:59.142Z,20.95
2024-01-16T23:26:27.287Z,15.40
2024-01-16T23:28:56.566Z,17.00
2024-01-16T23:31:25.591Z,18.17
2024-01-16T23:33:54.935Z,20.05
2024-01-16T23:36:23.375Z,20.90
2024-01-16T23:38:53.749Z,19.17
2024-01-16T23:41:23.725Z,20.25
2024-01-16T23:43:52.651Z,23.08
2024-01-16T23:46:20.531Z,21.25
2024-01-16T23:48:49.754Z,21.52
2024-01-16T23:51:18.025Z,26.27
2024-01-16T23:53:46.603Z,23.13
2024-01-16T23:56:16.746Z,20.85
2024-01-16T23:58:48.118Z,21.60
